Time;durP1;ratioP1;P1;durP2;ratioP2;P2;SDS_P1;SDS_P2;PMS_P1;PMS_P2;Temp;Humidity;BMP_temperature;BMP_pressure;BME280_temperature;BME280_humidity;BME280_pressure;Samples;Min_cycle;Max_cycle;Signal;HPM_P1;HPM_P2
2021/12/24 00:00:37;;;;;;;79.47;39.17;;;3.60;99.90;;;;;;5029189;28;20030;-72
2021/12/24 00:03:04;;;;;;;83.07;39.23;;;3.60;99.90;;;;;;5022832;28;20052;-73
2021/12/24 00:05:30;;;;;;;74.97;36.73;;;3.60;99.90;;;;;;5042116;28;20025;-72
2021/12/24 00:07:56;;;;;;;76.37;38.43;;;3.70;99.90;;;;;;5050641;28;20036;-73
2021/12/24 00:10:22;;;;;;;75.50;37.33;;;3.70;99.90;;;;;;5054221;28;20017;-72
2021/12/24 00:12:56;;;;;;;81.93;38.30;;;3.70;99.90;;;;;;5045583;28;20049;-72
2021/12/24 00:17:48;;;;;;;81.17;38.07;;;3.60;99.90;;;;;;5041557;28;20498;-72
2021/12/24 00:21:18;;;;;;;79.95;40.33;;;3.50;99.90;;;;;;5023877;28;20066;-72
2021/12/24 00:35:05;;;;;;;80.33;40.07;;;3.50;99.90;;;;;;5039184;28;20034;-72
2021/12/24 00:37:01;;;;;;;91.83;41.87;;;3.60;99.90;;;;;;5041314;28;20371;-72
2021/12/24 00:39:27;;;;;;;78.35;38.80;;;3.60;99.90;;;;;;5032958;28;20034;-72
2021/12/24 00:41:53;;;;;;;79.40;38.53;;;3.60;99.90;;;;;;5032696;28;20033;-72
2021/12/24 00:44:19;;;;;;;86.10;39.10;;;3.70;99.90;;;;;;5036510;28;20420;-72
2021/12/24 00:46:44;;;;;;;81.50;39.63;;;3.70;99.90;;;;;;5047910;28;20119;-73
2021/12/24 00:49:10;;;;;;;85.93;39.27;;;3.70;99.90;;;;;;5044630;28;20040;-72
2021/12/24 00:56:58;;;;;;;80.10;37.10;;;3.70;99.90;;;;;;5045429;28;20032;-72
2021/12/24 00:59:24;;;;;;;87.27;39.10;;;3.70;99.90;;;;;;5027847;28;20021;-72
2021/12/24 01:01:50;;;;;;;81.40;40.03;;;3.70;99.90;;;;;;5045388;28;20045;-72
2021/12/24 01:04:15;;;;;;;77.73;39.23;;;3.60;99.90;;;;;;5053625;28;20017;-73
2021/12/24 01:06:42;;;;;;;83.40;39.73;;;3.70;99.90;;;;;;5054454;28;20599;-72
2021/12/24 01:09:08;;;;;;;79.73;38.00;;;3.70;99.90;;;;;;5048385;28;20033;-72
2021/12/24 01:11:33;;;;;;;83.50;39.50;;;3.70;99.90;;;;;;5016614;28;20017;-72
2021/12/24 01:13:59;;;;;;;83.07;39.47;;;3.60;99.90;;;;;;5039308;28;20513;-72
2021/12/24 01:16:43;;;;;;;77.27;38.73;;;3.60;99.90;;;;;;5052430;28;20521;-72
2021/12/24 01:19:18;;;;;;;76.90;37.90;;;3.60;99.90;;;;;;5053545;28;20013;-72
2021/12/24 01:24:36;;;;;;;78.63;38.33;;;3.50;99.90;;;;;;5034450;28;20033;-72
2021/12/24 01:27:22;;;;;;;73.70;35.30;;;3.50;99.90;;;;;;5024014;28;20049;-72
2021/12/24 01:40:37;;;;;;;79.93;38.30;;;3.30;99.90;;;;;;5041555;28;20037;-72
2021/12/24 01:43:03;;;;;;;78.60;38.20;;;3.30;99.90;;;;;;5041688;28;20048;-72
2021/12/24 01:45:32;;;;;;;83.03;39.67;;;3.30;99.90;;;;;;5037485;28;20021;-73
2021/12/24 01:48:01;;;;;;;81.40;39.63;;;3.20;99.90;;;;;;5026275;28;20033;-72
2021/12/24 01:50:28;;;;;;;85.53;39.57;;;3.20;99.90;;;;;;5044105;28;20471;-73
2021/12/24 01:52:55;;;;;;;78.60;39.03;;;3.20;99.90;;;;;;5045139;28;20083;-72
2021/12/24 01:55:23;;;;;;;78.87;38.03;;;3.30;99.90;;;;;;5049385;28;20479;-72
2021/12/24 01:57:50;;;;;;;77.87;38.60;;;3.30;99.90;;;;;;5040931;28;20037;-72
2021/12/24 02:00:24;;;;;;;78.17;37.67;;;3.30;99.90;;;;;;5036778;28;20022;-72
2021/12/24 02:02:50;;;;;;;85.80;40.20;;;3.30;99.90;;;;;;5039103;28;20029;-72
2021/12/24 02:05:19;;;;;;;88.87;39.43;;;3.30;99.90;;;;;;5039760;28;20405;-79
2021/12/24 02:07:46;;;;;;;76.57;39.87;;;3.30;99.90;;;;;;5029504;28;20037;-73
2021/12/24 02:10:13;;;;;;;82.37;38.47;;;3.30;99.90;;;;;;5045163;28;20060;-72
2021/12/24 02:12:40;;;;;;;75.97;37.37;;;3.30;99.90;;;;;;5044441;28;20017;-72
2021/12/24 02:15:12;;;;;;;81.90;38.30;;;3.30;99.90;;;;;;5041074;28;20021;-72
2021/12/24 02:28:38;;;;;;;80.20;38.63;;;3.30;99.90;;;;;;5044991;28;20569;-73
2021/12/24 02:31:07;;;;;;;75.17;36.53;;;3.20;99.90;;;;;;5050618;28;20025;-72
2021/12/24 02:33:33;;;;;;;79.33;38.27;;;3.20;99.90;;;;;;5038867;28;20019;-80
2021/12/24 02:35:59;;;;;;;72.77;37.07;;;3.20;99.90;;;;;;5030472;28;20615;-79
2021/12/24 02:38:25;;;;;;;73.90;37.40;;;3.20;99.90;;;;;;5044358;28;20498;-72
2021/12/24 02:40:51;;;;;;;77.87;37.70;;;3.20;99.90;;;;;;5029099;28;20183;-80
2021/12/24 02:43:20;;;;;;;68.97;35.80;;;3.20;99.90;;;;;;5048321;28;20075;-80
2021/12/24 02:45:48;;;;;;;80.63;38.37;;;3.20;99.90;;;;;;5042700;28;20029;-80
2021/12/24 02:56:11;;;;;;;77.00;38.60;;;3.00;99.90;;;;;;5041850;28;20572;-80
2021/12/24 02:58:42;;;;;;;74.47;38.07;;;3.10;99.90;;;;;;5047021;28;20020;-80
2021/12/24 03:01:09;;;;;;;78.13;37.63;;;3.10;99.90;;;;;;5033300;28;20032;-79
2021/12/24 03:03:35;;;;;;;70.93;36.40;;;3.10;99.90;;;;;;5050580;28;20079;-80
2021/12/24 03:06:01;;;;;;;70.87;35.37;;;3.20;99.90;;;;;;5044674;28;20030;-80
2021/12/24 03:08:27;;;;;;;78.03;36.87;;;3.20;99.90;;;;;;5022305;28;20395;-80
2021/12/24 03:10:55;;;;;;;73.47;37.43;;;3.10;99.90;;;;;;5018404;28;20028;-80
2021/12/24 03:13:22;;;;;;;81.77;37.03;;;3.20;99.90;;;;;;5041146;28;20070;-79
2021/12/24 03:15:50;;;;;;;76.13;37.33;;;3.10;99.90;;;;;;5029043;28;20032;-79
2021/12/24 03:18:23;;;;;;;70.50;36.33;;;3.10;99.90;;;;;;5044905;28;20017;-80
2021/12/24 03:20:57;;;;;;;71.00;36.37;;;3.20;99.90;;;;;;5038651;28;20048;-79
2021/12/24 03:23:34;;;;;;;69.83;35.53;;;3.20;99.90;;;;;;5050165;28;20494;-80
2021/12/24 03:26:00;;;;;;;70.50;36.33;;;3.30;99.90;;;;;;5027667;28;20032;-80
2021/12/24 03:28:26;;;;;;;72.90;35.93;;;3.30;99.90;;;;;;5047314;28;20042;-80
2021/12/24 03:30:51;;;;;;;69.00;36.53;;;3.30;99.90;;;;;;5044169;28;20036;-80
2021/12/24 03:33:17;;;;;;;69.67;35.63;;;3.40;99.90;;;;;;5041233;28;20025;-80
2021/12/24 03:35:43;;;;;;;73.27;36.17;;;3.40;99.90;;;;;;5037351;28;20021;-80
2021/12/24 03:38:09;;;;;;;74.27;36.17;;;3.40;99.90;;;;;;5031108;28;20070;-79
2021/12/24 03:40:35;;;;;;;69.53;37.00;;;3.40;99.90;;;;;;5043404;28;20053;-80
2021/12/24 03:43:00;;;;;;;72.40;36.13;;;3.30;99.90;;;;;;5020960;28;20026;-80
2021/12/24 03:45:34;;;;;;;77.03;37.63;;;3.20;99.90;;;;;;5038125;28;20437;-80
2021/12/24 03:48:03;;;;;;;72.17;36.57;;;3.20;99.90;;;;;;5044007;28;20095;-79
2021/12/24 03:50:46;;;;;;;73.40;37.03;;;3.30;99.90;;;;;;5046154;28;20025;-79
2021/12/24 03:55:56;;;;;;;70.30;37.20;;;3.40;99.90;;;;;;5042366;28;20036;-80
2021/12/24 03:58:22;;;;;;;77.37;37.33;;;3.40;99.90;;;;;;5040121;28;20108;-80
2021/12/24 04:00:48;;;;;;;68.53;35.80;;;3.40;99.90;;;;;;5047922;28;20033;-80
2021/12/24 04:03:14;;;;;;;71.93;36.37;;;3.40;99.90;;;;;;5046141;28;20021;-80
2021/12/24 04:05:40;;;;;;;72.67;36.23;;;3.40;99.90;;;;;;5042411;28;20364;-80
2021/12/24 04:08:06;;;;;;;75.63;35.43;;;3.40;99.90;;;;;;5048738;28;20032;-80
2021/12/24 04:10:39;;;;;;;70.53;37.53;;;3.40;99.90;;;;;;5036129;28;20440;-80
2021/12/24 04:13:07;;;;;;;71.83;36.60;;;3.40;99.90;;;;;;5031661;28;20681;-79
2021/12/24 04:15:34;;;;;;;74.47;39.03;;;3.40;99.90;;;;;;5045629;28;20021;-80
2021/12/24 04:17:59;;;;;;;72.03;38.03;;;3.50;99.90;;;;;;5050196;28;20033;-80
2021/12/24 04:25:55;;;;;;;73.33;37.03;;;3.60;99.90;;;;;;5042665;28;20103;-79
2021/12/24 04:28:21;;;;;;;74.37;38.07;;;3.60;99.90;;;;;;5045246;28;20479;-79
2021/12/24 04:30:51;;;;;;;71.97;37.83;;;3.60;99.90;;;;;;5028462;28;20036;-80
2021/12/24 04:33:30;;;;;;;75.90;35.77;;;3.70;99.90;;;;;;5046859;28;20025;-79
2021/12/24 04:35:59;;;;;;;75.53;38.63;;;3.60;99.90;;;;;;5042386;28;20361;-79
2021/12/24 04:51:55;;;;;;;74.67;37.43;;;3.70;99.90;;;;;;5034823;28;20091;-78
2021/12/24 05:02:51;;;;;;;68.70;36.00;;;3.80;99.90;;;;;;5043139;28;20084;-78
2021/12/24 05:10:11;;;;;;;64.27;33.87;;;3.80;99.90;;;;;;5038961;28;20541;-79
2021/12/24 05:12:37;;;;;;;67.40;34.43;;;3.80;99.90;;;;;;5067290;22;20029;-80
2021/12/24 05:15:04;;;;;;;64.23;34.20;;;3.80;99.90;;;;;;5028282;28;20558;-72
2021/12/24 05:22:40;;;;;;;75.23;35.03;;;3.70;99.90;;;;;;5033085;28;20037;-73
2021/12/24 05:25:06;;;;;;;65.65;35.33;;;3.70;99.90;;;;;;5030690;28;20033;-72
2021/12/24 05:27:32;;;;;;;68.73;35.47;;;3.70;99.90;;;;;;5028078;28;20540;-72
2021/12/24 05:29:57;;;;;;;74.00;36.23;;;3.70;99.90;;;;;;5027756;28;20035;-72
2021/12/24 05:32:23;;;;;;;67.20;35.30;;;3.80;99.90;;;;;;5027636;28;20522;-72
2021/12/24 05:34:49;;;;;;;68.03;35.60;;;3.80;99.90;;;;;;5022402;28;20025;-73
2021/12/24 05:37:15;;;;;;;65.43;34.87;;;3.80;99.90;;;;;;5023405;28;20113;-73
2021/12/24 05:39:41;;;;;;;71.40;34.87;;;3.80;99.90;;;;;;5025536;28;20029;-73
2021/12/24 05:42:06;;;;;;;68.65;35.00;;;3.80;99.90;;;;;;5031960;28;20041;-73
2021/12/24 05:44:33;;;;;;;70.10;36.03;;;3.80;99.90;;;;;;5032562;28;20075;-79
2021/12/24 05:47:00;;;;;;;65.10;34.40;;;3.90;99.90;;;;;;5028746;28;20048;-79
2021/12/24 05:49:26;;;;;;;66.87;35.67;;;3.90;99.90;;;;;;5025769;28;20432;-79
2021/12/24 05:51:52;;;;;;;64.07;34.87;;;3.90;99.90;;;;;;5022834;28;20121;-79
2021/12/24 05:54:17;;;;;;;67.53;35.23;;;4.00;99.90;;;;;;5026758;28;20026;-79
2021/12/24 05:56:45;;;;;;;65.43;35.37;;;4.00;99.90;;;;;;5029084;28;20075;-79
2021/12/24 05:59:11;;;;;;;65.33;34.07;;;4.00;99.90;;;;;;5020737;28;20022;-79
2021/12/24 06:01:37;;;;;;;73.07;36.27;;;4.00;99.90;;;;;;5033700;28;20033;-79
2021/12/24 06:04:03;;;;;;;71.53;37.27;;;4.00;99.90;;;;;;5027778;28;20033;-79
2021/12/24 06:06:29;;;;;;;74.10;37.93;;;4.00;99.90;;;;;;5032126;28;20044;-80
2021/12/24 06:08:55;;;;;;;68.28;36.55;;;4.00;99.90;;;;;;5027686;28;20029;-79
2021/12/24 06:11:21;;;;;;;70.95;36.65;;;4.00;99.90;;;;;;5024688;28;20029;-79
2021/12/24 06:13:51;;;;;;;66.87;35.50;;;4.00;99.90;;;;;;5025328;28;20041;-79
2021/12/24 06:16:18;;;;;;;68.30;35.75;;;4.00;99.90;;;;;;5029284;28;20014;-79
2021/12/24 06:18:44;;;;;;;69.63;35.60;;;4.00;99.90;;;;;;5030169;28;20025;-79
2021/12/24 06:21:10;;;;;;;61.65;33.05;;;4.00;99.90;;;;;;5030288;28;20029;-79
2021/12/24 06:23:38;;;;;;;65.93;35.78;;;4.00;99.90;;;;;;5027367;28;20025;-78
2021/12/24 06:26:05;;;;;;;67.80;35.67;;;4.00;99.90;;;;;;5026401;28;21208;-80
2021/12/24 06:28:32;;;;;;;65.20;35.63;;;4.00;99.90;;;;;;5025839;28;20407;-80
2021/12/24 06:31:02;;;;;;;69.03;35.72;;;4.00;99.90;;;;;;5019280;28;20056;-80
2021/12/24 06:33:29;;;;;;;69.95;35.35;;;4.00;99.90;;;;;;5015797;28;20054;-80
2021/12/24 06:35:56;;;;;;;69.57;36.10;;;4.00;99.90;;;;;;5030786;28;20549;-80
2021/12/24 06:38:22;;;;;;;67.28;35.28;;;4.00;99.90;;;;;;5027662;28;20112;-80
2021/12/24 06:40:48;;;;;;;77.67;37.00;;;4.00;99.90;;;;;;5025830;28;20083;-80
2021/12/24 06:43:14;;;;;;;65.80;35.67;;;4.00;99.90;;;;;;5029229;28;20127;-80
2021/12/24 06:45:40;;;;;;;68.10;35.63;;;4.00;99.90;;;;;;5032333;28;20025;-80
2021/12/24 06:48:06;;;;;;;72.65;36.55;;;4.00;99.90;;;;;;5027139;28;20175;-80
2021/12/24 06:50:33;;;;;;;71.90;37.65;;;4.00;99.90;;;;;;5021708;28;20025;-79
2021/12/24 06:52:59;;;;;;;75.90;38.78;;;4.00;99.90;;;;;;5022196;28;20026;-80
2021/12/24 06:55:25;;;;;;;67.53;35.70;;;3.90;99.90;;;;;;5012519;28;20546;-80
2021/12/24 06:57:51;;;;;;;71.13;36.13;;;3.90;99.90;;;;;;5032320;28;20116;-80
2021/12/24 07:00:20;;;;;;;71.40;38.58;;;3.90;99.90;;;;;;5032832;28;20108;-80
2021/12/24 07:02:47;;;;;;;69.17;34.87;;;3.90;99.90;;;;;;5032547;28;20513;-80
2021/12/24 07:05:13;;;;;;;68.17;36.17;;;4.00;99.90;;;;;;5026033;28;20490;-80
2021/12/24 07:07:39;;;;;;;70.83;38.40;;;4.00;99.90;;;;;;5031735;28;20030;-80
2021/12/24 07:10:05;;;;;;;72.93;37.88;;;4.00;99.90;;;;;;5028472;28;20549;-80
2021/12/24 07:12:32;;;;;;;69.43;38.67;;;4.00;99.90;;;;;;5015125;28;20036;-80
2021/12/24 07:14:57;;;;;;;68.30;37.40;;;4.00;99.90;;;;;;5032435;28;20041;-80
2021/12/24 07:17:23;;;;;;;72.50;37.53;;;4.10;99.90;;;;;;5023740;28;21331;-80
2021/12/24 07:19:49;;;;;;;70.45;37.33;;;4.10;99.90;;;;;;5026973;28;20108;-79
2021/12/24 07:22:17;;;;;;;77.03;38.90;;;4.10;99.90;;;;;;5026888;28;20112;-80
2021/12/24 07:24:43;;;;;;;70.35;38.70;;;4.20;99.90;;;;;;5026311;28;20033;-80
2021/12/24 07:27:09;;;;;;;70.77;38.10;;;4.20;99.90;;;;;;5031693;28;20148;-80
2021/12/24 07:29:35;;;;;;;74.87;38.53;;;4.20;99.90;;;;;;5025371;28;20037;-80
2021/12/24 07:32:01;;;;;;;69.78;37.92;;;4.20;99.90;;;;;;5025196;28;20029;-80
2021/12/24 07:34:26;;;;;;;71.70;38.28;;;4.20;99.90;;;;;;5026849;28;20034;-79
2021/12/24 07:36:52;;;;;;;74.93;37.97;;;4.30;99.90;;;;;;5031668;28;20025;-80
2021/12/24 07:39:18;;;;;;;75.55;39.10;;;4.30;99.90;;;;;;5032466;28;20029;-80
2021/12/24 07:41:44;;;;;;;67.18;35.15;;;4.30;99.90;;;;;;5029919;28;20101;-79
2021/12/24 07:44:12;;;;;;;52.90;28.15;;;4.50;99.90;;;;;;5022639;28;20034;-79
2021/12/24 07:46:46;;;;;;;81.78;41.72;;;4.90;99.90;;;;;;5029191;28;20092;-80
2021/12/24 07:54:33;;;;;;;78.10;40.08;;;4.70;99.90;;;;;;5023514;28;20110;-72
2021/12/24 07:57:00;;;;;;;74.45;39.80;;;4.60;99.90;;;;;;5023865;28;20014;-72
2021/12/24 07:59:26;;;;;;;77.47;40.67;;;4.60;99.90;;;;;;5023055;28;20040;-72
2021/12/24 08:01:56;;;;;;;80.43;40.65;;;4.60;99.90;;;;;;5027890;28;20468;-72
2021/12/24 08:04:22;;;;;;;77.32;40.65;;;4.60;99.90;;;;;;5027429;28;20052;-72
2021/12/24 08:06:49;;;;;;;80.32;41.00;;;4.60;99.90;;;;;;5028178;28;20061;-72
2021/12/24 08:09:14;;;;;;;79.97;41.65;;;4.60;99.90;;;;;;5032520;28;20033;-72
2021/12/24 08:11:40;;;;;;;74.63;41.20;;;4.60;99.90;;;;;;5032353;28;20037;-73
2021/12/24 08:14:08;;;;;;;77.68;41.22;;;4.70;99.90;;;;;;5034838;28;20049;-72
2021/12/24 08:16:35;;;;;;;80.93;41.53;;;4.70;99.90;;;;;;5035383;28;20033;-80
2021/12/24 08:19:02;;;;;;;81.30;43.03;;;4.70;99.90;;;;;;5032726;28;20040;-73
2021/12/24 08:21:28;;;;;;;73.00;39.70;;;4.70;99.90;;;;;;5027453;28;20018;-72
2021/12/24 08:23:53;;;;;;;71.82;39.38;;;4.70;99.90;;;;;;5033862;28;20025;-80
2021/12/24 08:26:23;;;;;;;70.28;39.67;;;4.60;99.90;;;;;;5025271;28;20435;-80
2021/12/24 08:28:50;;;;;;;74.10;40.20;;;4.60;99.90;;;;;;5022847;28;20030;-80
2021/12/24 08:31:17;;;;;;;80.07;42.00;;;4.60;99.90;;;;;;5031277;28;20021;-80
2021/12/24 08:33:54;;;;;;;83.00;42.33;;;4.60;99.90;;;;;;5022681;28;20044;-80
2021/12/24 08:36:20;;;;;;;75.90;40.22;;;4.60;99.90;;;;;;5032287;28;20021;-81
2021/12/24 08:38:45;;;;;;;76.72;41.17;;;4.60;99.90;;;;;;5022613;28;20471;-80
2021/12/24 08:41:11;;;;;;;73.80;40.83;;;4.70;99.90;;;;;;5026522;28;20025;-80
2021/12/24 08:43:37;;;;;;;77.80;40.70;;;4.60;99.90;;;;;;5029464;28;20057;-79
2021/12/24 08:46:05;;;;;;;78.70;40.78;;;4.60;99.90;;;;;;5031860;28;20485;-79
2021/12/24 08:48:31;;;;;;;82.35;41.17;;;4.60;99.90;;;;;;5029685;28;20029;-78
2021/12/24 08:50:57;;;;;;;77.97;41.13;;;4.60;99.90;;;;;;5027137;28;20026;-79
2021/12/24 08:53:23;;;;;;;79.68;41.30;;;4.60;99.90;;;;;;5029182;28;20029;-79
2021/12/24 08:55:50;;;;;;;79.63;39.15;;;4.60;99.90;;;;;;5028332;28;20047;-80
2021/12/24 08:58:16;;;;;;;75.40;38.58;;;4.60;99.90;;;;;;5025490;28;20026;-79
2021/12/24 09:00:42;;;;;;;79.20;39.67;;;4.60;99.90;;;;;;5028698;28;20030;-79
2021/12/24 09:03:08;;;;;;;75.70;39.45;;;4.60;99.90;;;;;;5034225;28;20029;-80
2021/12/24 09:05:40;;;;;;;74.57;38.28;;;4.50;99.90;;;;;;5028332;28;20029;-79
2021/12/24 09:08:11;;;;;;;78.10;40.47;;;4.50;99.90;;;;;;5032155;28;20486;-79
2021/12/24 09:10:36;;;;;;;74.65;37.47;;;4.50;99.90;;;;;;5030141;28;20104;-79
2021/12/24 09:13:02;;;;;;;74.45;38.67;;;4.60;99.90;;;;;;5029809;28;20073;-79
2021/12/24 09:15:30;;;;;;;73.68;39.42;;;4.60;99.90;;;;;;5025001;28;20067;-79
2021/12/24 09:18:01;;;;;;;76.25;39.05;;;4.60;99.90;;;;;;5030979;28;20034;-78
2021/12/24 09:20:32;;;;;;;74.35;38.60;;;4.60;99.90;;;;;;5025227;28;20452;-79
2021/12/24 09:23:00;;;;;;;75.40;39.60;;;4.70;99.90;;;;;;5029768;28;20048;-80
2021/12/24 09:25:27;;;;;;;71.03;38.42;;;4.70;99.90;;;;;;5033769;28;20525;-80
2021/12/24 09:27:54;;;;;;;72.38;39.42;;;4.70;99.90;;;;;;5031885;28;20079;-79
2021/12/24 09:30:20;;;;;;;76.95;40.97;;;4.80;99.90;;;;;;5024123;28;20518;-79
2021/12/24 09:32:46;;;;;;;73.57;38.22;;;4.70;99.90;;;;;;5031042;28;20110;-80
2021/12/24 09:35:12;;;;;;;70.43;38.25;;;4.70;99.90;;;;;;5019890;28;20105;-78
2021/12/24 09:37:39;;;;;;;74.20;40.17;;;4.70;99.90;;;;;;5028319;28;20030;-79
2021/12/24 09:40:08;;;;;;;77.68;38.90;;;4.80;99.90;;;;;;5028260;28;20030;-80
2021/12/24 09:42:34;;;;;;;74.07;38.67;;;4.80;99.90;;;;;;5034144;28;20037;-79
2021/12/24 09:45:01;;;;;;;72.15;37.58;;;4.80;99.90;;;;;;5033179;28;20030;-79
2021/12/24 09:47:27;;;;;;;71.30;37.78;;;4.80;99.90;;;;;;5025515;28;20056;-79
2021/12/24 09:49:53;;;;;;;76.80;38.97;;;4.80;99.90;;;;;;5031034;28;20118;-79
2021/12/24 09:52:20;;;;;;;78.85;39.72;;;4.90;99.90;;;;;;5025751;28;20099;-79
2021/12/24 09:54:47;;;;;;;76.03;38.90;;;4.90;99.90;;;;;;5033273;28;20100;-79
2021/12/24 09:57:17;;;;;;;67.47;37.78;;;4.90;99.90;;;;;;5026667;28;20036;-79
2021/12/24 09:59:43;;;;;;;80.63;39.10;;;5.00;99.90;;;;;;5031878;28;20080;-80
2021/12/24 10:02:15;;;;;;;77.72;41.78;;;5.00;99.90;;;;;;5024231;28;20437;-80
2021/12/24 10:04:42;;;;;;;79.30;41.92;;;4.90;99.90;;;;;;5025503;28;20442;-79
2021/12/24 10:07:10;;;;;;;75.35;39.22;;;5.00;99.90;;;;;;5027369;28;20026;-79
2021/12/24 10:09:38;;;;;;;76.63;40.20;;;4.90;99.90;;;;;;5028029;28;20763;-80
2021/12/24 10:12:17;;;;;;;79.18;40.97;;;4.90;99.90;;;;;;5033767;28;20497;-80
2021/12/24 10:14:56;;;;;;;77.78;38.13;;;4.90;99.90;;;;;;5030689;28;20043;-78
2021/12/24 10:17:30;;;;;;;81.95;41.75;;;5.00;99.90;;;;;;5022028;28;20018;-79
2021/12/24 10:19:59;;;;;;;85.05;42.40;;;5.00;99.90;;;;;;5020580;28;20045;-72
2021/12/24 10:22:25;;;;;;;74.68;40.65;;;5.00;99.90;;;;;;5023373;28;20908;-72
2021/12/24 10:25:13;;;;;;;77.35;41.10;;;5.10;99.90;;;;;;5021965;28;20058;-73
2021/12/24 10:27:39;;;;;;;76.18;41.22;;;5.10;99.90;;;;;;5029243;28;20025;-73
2021/12/24 10:30:15;;;;;;;79.03;40.83;;;5.10;99.90;;;;;;5027970;28;20407;-72
2021/12/24 10:32:41;;;;;;;76.07;40.45;;;5.10;99.90;;;;;;5032361;28;20048;-72
2021/12/24 10:35:27;;;;;;;81.07;42.65;;;5.10;99.90;;;;;;5031092;28;20064;-72
2021/12/24 10:38:16;;;;;;;79.25;41.25;;;5.10;99.90;;;;;;5028475;28;20033;-73
2021/12/24 10:40:53;;;;;;;85.20;43.00;;;5.20;99.90;;;;;;5022987;28;20052;-72
2021/12/24 10:43:33;;;;;;;80.18;40.60;;;5.20;99.90;;;;;;5028645;28;20025;-72
2021/12/24 10:46:12;;;;;;;80.05;39.35;;;5.20;99.90;;;;;;5017278;28;20467;-72
2021/12/24 10:48:46;;;;;;;79.20;40.90;;;5.10;99.90;;;;;;5022229;28;20060;-72
2021/12/24 10:51:20;;;;;;;77.55;40.60;;;5.10;99.90;;;;;;5031932;28;20032;-72
2021/12/24 10:54:03;;;;;;;78.05;42.17;;;5.10;99.90;;;;;;5028898;28;20159;-71
2021/12/24 10:56:28;;;;;;;82.47;41.35;;;5.10;99.90;;;;;;5031966;28;20026;-72
2021/12/24 10:58:54;;;;;;;86.72;43.78;;;5.10;99.90;;;;;;5026705;28;20037;-72
2021/12/24 11:01:20;;;;;;;78.85;42.03;;;5.20;99.90;;;;;;5032535;28;20068;-73
2021/12/24 11:03:46;;;;;;;83.07;43.78;;;5.20;99.90;;;;;;5031996;28;20381;-72
2021/12/24 11:06:15;;;;;;;84.25;43.78;;;5.20;99.90;;;;;;5020631;28;20506;-72
2021/12/24 11:08:42;;;;;;;73.88;40.30;;;5.30;99.90;;;;;;5035057;28;20034;-72
2021/12/24 11:11:15;;;;;;;77.88;43.45;;;5.20;99.90;;;;;;5020439;28;20026;-72
2021/12/24 11:13:44;;;;;;;78.35;41.95;;;5.20;99.90;;;;;;5017781;28;20073;-73
2021/12/24 11:16:16;;;;;;;87.25;43.88;;;5.20;99.90;;;;;;5031392;28;20025;-73
2021/12/24 11:18:46;;;;;;;86.25;44.60;;;5.20;99.90;;;;;;5027565;28;20049;-73
2021/12/24 11:21:18;;;;;;;88.65;46.55;;;5.20;99.90;;;;;;5029058;28;20033;-79
2021/12/24 11:23:44;;;;;;;94.68;46.63;;;5.20;99.90;;;;;;5029818;28;20086;-73
2021/12/24 11:26:12;;;;;;;85.85;44.85;;;5.20;99.90;;;;;;5022725;22;20053;-72
2021/12/24 11:28:40;;;;;;;88.88;46.30;;;5.20;99.90;;;;;;5012131;28;20402;-73
2021/12/24 11:31:09;;;;;;;84.95;45.63;;;5.20;99.90;;;;;;5033145;28;20397;-73
2021/12/24 11:33:36;;;;;;;87.22;44.67;;;5.20;99.90;;;;;;5029446;28;20057;-73
2021/12/24 11:36:05;;;;;;;87.28;46.60;;;5.20;99.90;;;;;;5025787;28;20116;-73
2021/12/24 11:38:38;;;;;;;86.05;45.15;;;5.20;99.90;;;;;;5029987;28;20034;-73
2021/12/24 11:41:06;;;;;;;87.70;44.33;;;5.20;99.90;;;;;;5035269;28;20128;-73
2021/12/24 11:43:35;;;;;;;86.72;44.38;;;5.30;99.90;;;;;;5035680;28;20021;-73
2021/12/24 11:46:05;;;;;;;89.22;43.45;;;5.30;99.90;;;;;;5035891;28;20029;-73
2021/12/24 11:48:33;;;;;;;85.40;44.97;;;5.30;99.90;;;;;;5035483;28;20844;-73
2021/12/24 11:51:23;;;;;;;81.57;44.97;;;5.30;99.90;;;;;;5035713;28;20489;-73
2021/12/24 11:53:52;;;;;;;80.55;44.15;;;5.30;99.90;;;;;;5032755;28;20037;-73
2021/12/24 11:56:22;;;;;;;86.25;43.88;;;5.20;99.90;;;;;;5035595;28;20025;-72
2021/12/24 11:58:51;;;;;;;79.43;43.45;;;5.20;99.90;;;;;;5034915;28;20029;-72
2021/12/24 12:01:18;;;;;;;82.50;43.38;;;5.20;99.90;;;;;;5017826;28;20044;-72
2021/12/24 12:03:53;;;;;;;77.07;40.78;;;5.20;99.90;;;;;;5033942;28;20356;-73
2021/12/24 12:06:22;;;;;;;78.70;43.55;;;5.20;99.90;;;;;;5035180;28;20567;-72
2021/12/24 12:08:49;;;;;;;80.85;43.65;;;5.20;99.90;;;;;;5035037;28;20100;-73
2021/12/24 12:11:26;;;;;;;79.80;42.08;;;5.20;99.90;;;;;;5024916;28;20039;-73
2021/12/24 12:14:01;;;;;;;77.95;42.88;;;5.20;99.90;;;;;;5030373;28;20025;-73
2021/12/24 12:16:39;;;;;;;81.18;41.65;;;5.20;99.90;;;;;;5030992;28;20026;-73
2021/12/24 12:19:11;;;;;;;78.43;42.20;;;5.20;99.90;;;;;;5030929;28;20032;-73
2021/12/24 12:21:42;;;;;;;81.60;41.22;;;5.20;99.90;;;;;;5034080;28;20029;-72
2021/12/24 12:26:43;;;;;;;83.22;43.28;;;5.30;99.90;;;;;;5029062;28;20053;-73
2021/12/24 12:29:40;;;;;;;80.97;43.13;;;5.20;99.90;;;;;;5034107;28;20072;-72
2021/12/24 12:32:15;;;;;;;83.25;42.17;;;5.20;99.90;;;;;;5034203;28;20116;-73
2021/12/24 12:34:43;;;;;;;81.93;43.85;;;5.20;99.90;;;;;;5033171;28;20025;-73
2021/12/24 12:37:23;;;;;;;81.97;44.33;;;5.20;99.90;;;;;;5034265;28;20025;-73
2021/12/24 12:39:52;;;;;;;85.50;42.40;;;5.30;99.90;;;;;;5033960;28;20018;-73
2021/12/24 12:42:19;;;;;;;84.68;43.97;;;5.30;99.90;;;;;;5034107;28;20386;-73
2021/12/24 12:44:52;;;;;;;83.32;43.13;;;5.30;99.90;;;;;;5033243;28;20056;-72
2021/12/24 12:47:19;;;;;;;81.45;44.47;;;5.30;99.90;;;;;;5034525;28;20434;-72
2021/12/24 12:49:46;;;;;;;79.10;42.20;;;5.30;99.90;;;;;;5033486;28;20071;-73
2021/12/24 12:52:30;;;;;;;79.70;42.22;;;5.20;99.90;;;;;;5022045;28;20029;-72
2021/12/24 12:54:56;;;;;;;75.50;39.90;;;5.20;99.90;;;;;;5034242;28;20455;-73
2021/12/24 12:57:34;;;;;;;79.50;42.67;;;5.20;99.90;;;;;;5033988;28;20104;-73
2021/12/24 13:00:17;;;;;;;81.15;42.33;;;5.20;99.90;;;;;;5030359;28;20036;-72
2021/12/24 13:03:07;;;;;;;77.40;41.55;;;5.20;99.90;;;;;;5031630;28;20112;-73
2021/12/24 13:05:41;;;;;;;74.60;41.28;;;5.20;99.90;;;;;;5031876;28;20017;-72
2021/12/24 13:08:13;;;;;;;79.88;41.03;;;5.20;99.90;;;;;;5032135;28;20116;-72
2021/12/24 13:10:39;;;;;;;74.50;39.38;;;5.20;99.90;;;;;;5029219;28;20482;-73
2021/12/24 13:13:06;;;;;;;77.88;41.22;;;5.20;99.90;;;;;;5032879;28;20036;-72
2021/12/24 13:15:45;;;;;;;75.55;41.00;;;5.20;99.90;;;;;;5030516;28;20096;-73
2021/12/24 13:18:23;;;;;;;75.30;42.38;;;5.10;99.90;;;;;;5029683;28;20025;-72
2021/12/24 13:23:42;;;;;;;75.50;39.17;;;5.20;99.90;;;;;;5012552;28;20063;-72
2021/12/24 13:26:14;;;;;;;78.95;41.40;;;5.20;99.90;;;;;;5029572;28;20049;-72
2021/12/24 13:29:02;;;;;;;77.25;41.50;;;5.20;99.90;;;;;;5032139;28;20013;-73
2021/12/24 13:31:30;;;;;;;74.65;39.90;;;5.10;99.90;;;;;;5020479;28;20036;-72
2021/12/24 13:33:56;;;;;;;75.25;39.88;;;5.10;99.90;;;;;;5021211;28;20025;-73
2021/12/24 13:36:28;;;;;;;72.75;41.17;;;5.10;99.90;;;;;;5033166;28;20096;-72
2021/12/24 13:39:05;;;;;;;79.72;40.80;;;5.10;99.90;;;;;;5033638;28;20025;-72
2021/12/24 13:41:31;;;;;;;73.25;39.95;;;5.10;99.90;;;;;;5032613;28;20036;-72
2021/12/24 13:43:58;;;;;;;78.05;39.42;;;5.20;99.90;;;;;;5022637;28;20033;-72
2021/12/24 13:46:25;;;;;;;68.65;38.92;;;5.20;99.90;;;;;;5032575;28;20022;-72
2021/12/24 13:54:33;;;;;;;76.88;41.33;;;5.30;99.90;;;;;;5030949;28;20161;-72
2021/12/24 13:56:59;;;;;;;75.05;40.75;;;5.30;99.90;;;;;;5032969;28;20036;-72
2021/12/24 13:59:25;;;;;;;78.18;42.10;;;5.30;99.90;;;;;;5032561;28;20025;-72
2021/12/24 14:01:52;;;;;;;80.13;41.15;;;5.20;99.90;;;;;;5031558;28;20056;-72
2021/12/24 14:04:21;;;;;;;76.13;40.67;;;5.20;99.90;;;;;;5017623;28;20029;-72
2021/12/24 14:06:58;;;;;;;80.20;40.25;;;5.20;99.90;;;;;;5033111;28;20036;-72
2021/12/24 14:09:31;;;;;;;76.22;39.75;;;5.20;99.90;;;;;;5033177;28;20024;-72
2021/12/24 14:11:58;;;;;;;77.82;41.45;;;5.20;99.90;;;;;;5031821;28;20056;-73
2021/12/24 14:14:37;;;;;;;77.07;41.35;;;5.20;99.90;;;;;;5032127;28;20041;-72
2021/12/24 14:22:23;;;;;;;76.68;41.45;;;5.00;99.90;;;;;;5033127;28;20470;-72
2021/12/24 14:24:53;;;;;;;77.03;40.83;;;5.00;99.90;;;;;;5032168;28;20042;-73
2021/12/24 14:27:21;;;;;;;77.53;41.22;;;5.10;99.90;;;;;;5032945;28;20022;-73
2021/12/24 14:29:55;;;;;;;70.00;38.17;;;5.10;99.90;;;;;;5017002;28;20053;-72
2021/12/24 14:32:29;;;;;;;74.65;38.88;;;5.10;99.90;;;;;;5033539;28;20028;-72
2021/12/24 14:34:56;;;;;;;70.05;36.30;;;5.10;99.90;;;;;;5031719;28;20032;-72
2021/12/24 14:37:25;;;;;;;67.57;36.53;;;5.10;99.90;;;;;;5015446;28;20502;-73